sensor_id;sensor_type;location;lat;lon;timestamp;P1;durP1;ratioP1;P2;durP2;ratioP2
48263;SDS011;34086;51.076;13.722;2023-03-01T00:00:50;71.72;;;39.67;;
48263;SDS011;34086;51.076;13.722;2023-03-01T00:01:50;71.85;;;39.75;;
48263;SDS011;34086;51.076;13.722;2023-03-01T00:02:51;68.75;;;39.10;;
48263;SDS011;34086;51.076;13.722;2023-03-01T00:03:52;69.38;;;38.50;;
48263;SDS011;34086;51.076;13.722;2023-03-01T00:04:53;71.45;;;40.05;;
48263;SDS011;34086;51.076;13.722;2023-03-01T00:05:54;71.20;;;40.08;;
48263;SDS011;34086;51.076;13.722;2023-03-01T00:06:54;71.70;;;39.83;;
48263;SDS011;34086;51.076;13.722;2023-03-01T00:07:55;70.05;;;38.72;;
48263;SDS011;34086;51.076;13.722;2023-03-01T00:08:56;67.93;;;37.97;;
48263;SDS011;34086;51.076;13.722;2023-03-01T00:09:56;68.18;;;38.00;;
48263;SDS011;34086;51.076;13.722;2023-03-01T00:12:08;70.82;;;38.00;;
48263;SDS011;34086;51.076;13.722;2023-03-01T00:13:08;70.70;;;39.08;;
48263;SDS011;34086;51.076;13.722;2023-03-01T00:14:09;68.53;;;38.13;;
48263;SDS011;34086;51.076;13.722;2023-03-01T00:15:09;69.38;;;38.78;;
48263;SDS011;34086;51.076;13.722;2023-03-01T00:16:18;69.05;;;38.75;;
48263;SDS011;34086;51.076;13.722;2023-03-01T00:17:29;71.80;;;39.20;;
48263;SDS011;34086;51.076;13.722;2023-03-01T00:18:30;70.38;;;38.72;;
48263;SDS011;34086;51.076;13.722;2023-03-01T00:19:31;64.90;;;38.00;;
48263;SDS011;34086;51.076;13.722;2023-03-01T00:20:32;65.85;;;37.97;;
48263;SDS011;34086;51.076;13.722;2023-03-01T00:21:33;71.13;;;39.00;;
48263;SDS011;34086;51.076;13.722;2023-03-01T00:22:35;69.05;;;38.53;;
48263;SDS011;34086;51.076;13.722;2023-03-01T00:23:36;68.85;;;38.03;;
48263;SDS011;34086;51.076;13.722;2023-03-01T00:24:37;66.00;;;37.33;;
48263;SDS011;34086;51.076;13.722;2023-03-01T00:25:41;68.45;;;38.17;;
48263;SDS011;34086;51.076;13.722;2023-03-01T00:26:42;68.85;;;38.75;;
48263;SDS011;34086;51.076;13.722;2023-03-01T00:27:43;64.03;;;36.50;;
48263;SDS011;34086;51.076;13.722;2023-03-01T00:28:44;67.03;;;37.85;;
48263;SDS011;34086;51.076;13.722;2023-03-01T00:29:44;64.47;;;36.75;;
48263;SDS011;34086;51.076;13.722;2023-03-01T00:30:45;64.32;;;36.75;;
48263;SDS011;34086;51.076;13.722;2023-03-01T00:31:46;63.90;;;36.50;;
48263;SDS011;34086;51.076;13.722;2023-03-01T00:32:47;64.57;;;37.30;;
48263;SDS011;34086;51.076;13.722;2023-03-01T00:33:48;67.50;;;37.60;;
48263;SDS011;34086;51.076;13.722;2023-03-01T00:34:51;66.65;;;37.35;;
48263;SDS011;34086;51.076;13.722;2023-03-01T00:35:57;66.53;;;37.00;;
48263;SDS011;34086;51.076;13.722;2023-03-01T00:36:58;68.78;;;37.33;;
48263;SDS011;34086;51.076;13.722;2023-03-01T00:38:05;66.00;;;37.10;;
48263;SDS011;34086;51.076;13.722;2023-03-01T00:39:07;64.38;;;36.05;;
48263;SDS011;34086;51.076;13.722;2023-03-01T00:40:11;66.97;;;37.00;;
48263;SDS011;34086;51.076;13.722;2023-03-01T00:41:13;66.43;;;37.13;;
48263;SDS011;34086;51.076;13.722;2023-03-01T00:42:16;65.55;;;36.63;;
48263;SDS011;34086;51.076;13.722;2023-03-01T00:43:16;67.10;;;37.72;;
48263;SDS011;34086;51.076;13.722;2023-03-01T00:44:17;65.28;;;36.78;;
48263;SDS011;34086;51.076;13.722;2023-03-01T00:45:18;68.70;;;37.95;;
48263;SDS011;34086;51.076;13.722;2023-03-01T00:46:19;71.65;;;39.00;;
48263;SDS011;34086;51.076;13.722;2023-03-01T00:47:21;70.65;;;39.38;;
48263;SDS011;34086;51.076;13.722;2023-03-01T00:48:22;73.03;;;38.92;;
48263;SDS011;34086;51.076;13.722;2023-03-01T00:49:22;68.57;;;38.83;;
48263;SDS011;34086;51.076;13.722;2023-03-01T00:50:24;74.95;;;40.05;;
48263;SDS011;34086;51.076;13.722;2023-03-01T00:51:26;86.80;;;43.58;;
48263;SDS011;34086;51.076;13.722;2023-03-01T00:52:27;93.47;;;43.80;;
48263;SDS011;34086;51.076;13.722;2023-03-01T00:53:28;82.60;;;42.20;;
48263;SDS011;34086;51.076;13.722;2023-03-01T00:54:28;85.68;;;43.40;;
48263;SDS011;34086;51.076;13.722;2023-03-01T00:55:29;84.03;;;42.40;;
48263;SDS011;34086;51.076;13.722;2023-03-01T00:56:30;80.13;;;40.90;;
48263;SDS011;34086;51.076;13.722;2023-03-01T00:57:31;80.45;;;42.22;;
48263;SDS011;34086;51.076;13.722;2023-03-01T00:58:32;80.35;;;40.58;;
48263;SDS011;34086;51.076;13.722;2023-03-01T00:59:33;79.32;;;41.10;;
48263;SDS011;34086;51.076;13.722;2023-03-01T01:00:34;76.28;;;40.38;;
48263;SDS011;34086;51.076;13.722;2023-03-01T01:01:36;76.60;;;40.33;;
48263;SDS011;34086;51.076;13.722;2023-03-01T01:02:37;80.13;;;41.22;;
48263;SDS011;34086;51.076;13.722;2023-03-01T01:03:37;80.25;;;40.25;;
48263;SDS011;34086;51.076;13.722;2023-03-01T01:04:38;80.43;;;40.65;;
48263;SDS011;34086;51.076;13.722;2023-03-01T01:05:38;72.65;;;38.33;;
48263;SDS011;34086;51.076;13.722;2023-03-01T01:06:43;76.57;;;39.22;;
48263;SDS011;34086;51.076;13.722;2023-03-01T01:07:45;77.25;;;38.97;;
48263;SDS011;34086;51.076;13.722;2023-03-01T01:08:47;82.45;;;40.95;;
48263;SDS011;34086;51.076;13.722;2023-03-01T01:09:47;85.55;;;41.40;;
48263;SDS011;34086;51.076;13.722;2023-03-01T01:10:48;94.13;;;44.03;;
48263;SDS011;34086;51.076;13.722;2023-03-01T01:11:49;93.32;;;44.47;;
48263;SDS011;34086;51.076;13.722;2023-03-01T01:12:50;107.20;;;47.05;;
48263;SDS011;34086;51.076;13.722;2023-03-01T01:13:51;104.35;;;46.28;;
48263;SDS011;34086;51.076;13.722;2023-03-01T01:14:52;108.70;;;47.70;;
48263;SDS011;34086;51.076;13.722;2023-03-01T01:15:52;95.40;;;44.92;;
48263;SDS011;34086;51.076;13.722;2023-03-01T01:16:53;90.53;;;42.95;;
48263;SDS011;34086;51.076;13.722;2023-03-01T01:17:53;79.97;;;40.42;;
48263;SDS011;34086;51.076;13.722;2023-03-01T01:18:55;79.90;;;39.40;;
48263;SDS011;34086;51.076;13.722;2023-03-01T01:19:56;78.32;;;38.58;;
48263;SDS011;34086;51.076;13.722;2023-03-01T01:20:57;78.28;;;40.28;;
48263;SDS011;34086;51.076;13.722;2023-03-01T01:21:57;77.55;;;39.10;;
48263;SDS011;34086;51.076;13.722;2023-03-01T01:22:58;74.68;;;39.83;;
48263;SDS011;34086;51.076;13.722;2023-03-01T01:23:59;75.32;;;39.60;;
48263;SDS011;34086;51.076;13.722;2023-03-01T01:24:59;79.05;;;39.15;;
48263;SDS011;34086;51.076;13.722;2023-03-01T01:26:04;77.03;;;39.38;;
48263;SDS011;34086;51.076;13.722;2023-03-01T01:27:08;72.47;;;38.10;;
48263;SDS011;34086;51.076;13.722;2023-03-01T01:28:09;71.05;;;37.20;;
48263;SDS011;34086;51.076;13.722;2023-03-01T01:29:09;69.97;;;36.83;;
48263;SDS011;34086;51.076;13.722;2023-03-01T01:30:10;68.82;;;36.42;;
48263;SDS011;34086;51.076;13.722;2023-03-01T01:31:11;70.40;;;37.17;;
48263;SDS011;34086;51.076;13.722;2023-03-01T01:32:12;68.63;;;36.85;;
48263;SDS011;34086;51.076;13.722;2023-03-01T01:33:13;70.57;;;35.80;;
48263;SDS011;34086;51.076;13.722;2023-03-01T01:34:17;67.80;;;35.95;;
48263;SDS011;34086;51.076;13.722;2023-03-01T01:35:20;65.47;;;35.45;;
48263;SDS011;34086;51.076;13.722;2023-03-01T01:36:20;67.70;;;36.42;;
48263;SDS011;34086;51.076;13.722;2023-03-01T01:37:22;61.53;;;33.58;;
48263;SDS011;34086;51.076;13.722;2023-03-01T01:38:22;65.55;;;34.13;;
48263;SDS011;34086;51.076;13.722;2023-03-01T01:39:23;61.30;;;33.35;;
48263;SDS011;34086;51.076;13.722;2023-03-01T01:40:23;62.92;;;33.65;;
48263;SDS011;34086;51.076;13.722;2023-03-01T01:41:25;61.22;;;33.03;;
48263;SDS011;34086;51.076;13.722;2023-03-01T01:42:27;57.00;;;32.67;;
48263;SDS011;34086;51.076;13.722;2023-03-01T01:43:29;58.70;;;33.08;;
48263;SDS011;34086;51.076;13.722;2023-03-01T01:44:34;65.20;;;34.53;;
48263;SDS011;34086;51.076;13.722;2023-03-01T01:45:35;63.70;;;34.08;;
48263;SDS011;34086;51.076;13.722;2023-03-01T01:46:46;65.80;;;34.50;;
48263;SDS011;34086;51.076;13.722;2023-03-01T01:47:53;61.78;;;33.13;;
48263;SDS011;34086;51.076;13.722;2023-03-01T01:48:59;69.50;;;34.88;;
48263;SDS011;34086;51.076;13.722;2023-03-01T01:50:02;67.75;;;34.63;;
48263;SDS011;34086;51.076;13.722;2023-03-01T01:51:03;70.07;;;36.00;;
48263;SDS011;34086;51.076;13.722;2023-03-01T01:52:25;67.45;;;35.45;;
48263;SDS011;34086;51.076;13.722;2023-03-01T01:53:31;65.30;;;34.60;;
48263;SDS011;34086;51.076;13.722;2023-03-01T01:54:42;67.55;;;35.65;;
48263;SDS011;34086;51.076;13.722;2023-03-01T01:55:51;64.85;;;33.67;;
48263;SDS011;34086;51.076;13.722;2023-03-01T01:56:59;68.47;;;35.38;;
48263;SDS011;34086;51.076;13.722;2023-03-01T01:58:04;66.32;;;35.72;;
48263;SDS011;34086;51.076;13.722;2023-03-01T01:59:08;64.80;;;35.03;;
48263;SDS011;34086;51.076;13.722;2023-03-01T02:00:14;65.47;;;34.33;;
48263;SDS011;34086;51.076;13.722;2023-03-01T02:01:20;64.13;;;34.65;;
48263;SDS011;34086;51.076;13.722;2023-03-01T02:02:21;61.75;;;34.40;;
48263;SDS011;34086;51.076;13.722;2023-03-01T02:03:23;66.90;;;34.45;;
48263;SDS011;34086;51.076;13.722;2023-03-01T02:04:29;62.65;;;32.47;;
48263;SDS011;34086;51.076;13.722;2023-03-01T02:05:36;61.85;;;33.88;;
48263;SDS011;34086;51.076;13.722;2023-03-01T02:08:07;61.60;;;32.83;;
48263;SDS011;34086;51.076;13.722;2023-03-01T02:09:12;64.32;;;33.28;;
48263;SDS011;34086;51.076;13.722;2023-03-01T02:10:15;60.92;;;32.88;;
48263;SDS011;34086;51.076;13.722;2023-03-01T02:11:16;59.35;;;32.17;;
48263;SDS011;34086;51.076;13.722;2023-03-01T02:12:19;57.03;;;31.58;;
48263;SDS011;34086;51.076;13.722;2023-03-01T02:13:23;61.42;;;32.97;;
48263;SDS011;34086;51.076;13.722;2023-03-01T02:14:23;61.53;;;33.58;;
48263;SDS011;34086;51.076;13.722;2023-03-01T02:15:24;61.47;;;33.22;;
48263;SDS011;34086;51.076;13.722;2023-03-01T02:16:27;61.63;;;33.67;;
48263;SDS011;34086;51.076;13.722;2023-03-01T02:17:29;62.67;;;32.85;;
48263;SDS011;34086;51.076;13.722;2023-03-01T02:18:30;59.63;;;33.05;;
48263;SDS011;34086;51.076;13.722;2023-03-01T02:19:35;55.28;;;31.48;;
48263;SDS011;34086;51.076;13.722;2023-03-01T02:22:24;57.70;;;31.58;;
48263;SDS011;34086;51.076;13.722;2023-03-01T02:23:33;61.03;;;32.95;;
48263;SDS011;34086;51.076;13.722;2023-03-01T02:24:37;59.78;;;33.60;;
48263;SDS011;34086;51.076;13.722;2023-03-01T02:27:01;57.58;;;31.90;;
48263;SDS011;34086;51.076;13.722;2023-03-01T02:29:11;60.03;;;32.75;;
48263;SDS011;34086;51.076;13.722;2023-03-01T02:30:12;57.00;;;31.27;;
48263;SDS011;34086;51.076;13.722;2023-03-01T02:31:14;64.00;;;34.10;;
48263;SDS011;34086;51.076;13.722;2023-03-01T02:32:35;62.53;;;33.22;;
48263;SDS011;34086;51.076;13.722;2023-03-01T02:33:37;61.65;;;33.58;;
48263;SDS011;34086;51.076;13.722;2023-03-01T02:34:39;62.08;;;33.53;;
48263;SDS011;34086;51.076;13.722;2023-03-01T02:35:40;59.90;;;33.47;;
48263;SDS011;34086;51.076;13.722;2023-03-01T02:36:42;62.00;;;33.67;;
48263;SDS011;34086;51.076;13.722;2023-03-01T02:37:47;61.47;;;33.72;;
48263;SDS011;34086;51.076;13.722;2023-03-01T02:38:48;64.95;;;34.03;;
48263;SDS011;34086;51.076;13.722;2023-03-01T02:39:53;65.30;;;35.08;;
48263;SDS011;34086;51.076;13.722;2023-03-01T02:40:58;65.10;;;34.42;;
48263;SDS011;34086;51.076;13.722;2023-03-01T02:42:00;65.20;;;34.47;;
48263;SDS011;34086;51.076;13.722;2023-03-01T02:43:04;63.97;;;33.70;;
48263;SDS011;34086;51.076;13.722;2023-03-01T02:44:08;64.35;;;34.53;;
48263;SDS011;34086;51.076;13.722;2023-03-01T02:45:09;63.80;;;34.38;;
48263;SDS011;34086;51.076;13.722;2023-03-01T02:46:18;65.03;;;34.17;;
48263;SDS011;34086;51.076;13.722;2023-03-01T02:47:21;63.17;;;33.65;;
48263;SDS011;34086;51.076;13.722;2023-03-01T02:48:21;62.72;;;33.85;;
48263;SDS011;34086;51.076;13.722;2023-03-01T02:49:26;61.47;;;33.80;;
48263;SDS011;34086;51.076;13.722;2023-03-01T02:52:44;62.88;;;34.13;;
48263;SDS011;34086;51.076;13.722;2023-03-01T02:54:04;65.30;;;34.17;;
48263;SDS011;34086;51.076;13.722;2023-03-01T02:55:16;62.40;;;33.05;;
48263;SDS011;34086;51.076;13.722;2023-03-01T02:56:18;66.70;;;34.80;;
48263;SDS011;34086;51.076;13.722;2023-03-01T02:57:19;61.80;;;33.70;;
48263;SDS011;34086;51.076;13.722;2023-03-01T02:58:21;59.97;;;33.67;;
48263;SDS011;34086;51.076;13.722;2023-03-01T02:59:23;61.58;;;34.10;;
48263;SDS011;34086;51.076;13.722;2023-03-01T03:00:28;63.03;;;33.97;;
48263;SDS011;34086;51.076;13.722;2023-03-01T03:01:34;63.42;;;33.88;;
48263;SDS011;34086;51.076;13.722;2023-03-01T03:02:39;67.10;;;34.08;;
48263;SDS011;34086;51.076;13.722;2023-03-01T03:03:51;61.67;;;33.72;;
48263;SDS011;34086;51.076;13.722;2023-03-01T03:04:52;63.28;;;34.40;;
48263;SDS011;34086;51.076;13.722;2023-03-01T03:05:53;63.55;;;34.45;;
48263;SDS011;34086;51.076;13.722;2023-03-01T03:06:54;60.78;;;33.72;;
48263;SDS011;34086;51.076;13.722;2023-03-01T03:07:54;61.75;;;33.53;;
48263;SDS011;34086;51.076;13.722;2023-03-01T03:08:56;59.35;;;32.30;;
48263;SDS011;34086;51.076;13.722;2023-03-01T03:09:56;59.30;;;32.50;;
48263;SDS011;34086;51.076;13.722;2023-03-01T03:10:57;68.05;;;35.80;;
48263;SDS011;34086;51.076;13.722;2023-03-01T03:11:57;63.28;;;33.80;;
48263;SDS011;34086;51.076;13.722;2023-03-01T03:13:03;65.65;;;34.53;;
48263;SDS011;34086;51.076;13.722;2023-03-01T03:14:08;73.68;;;36.95;;
48263;SDS011;34086;51.076;13.722;2023-03-01T03:15:12;73.20;;;36.33;;
48263;SDS011;34086;51.076;13.722;2023-03-01T03:16:13;79.03;;;39.05;;
48263;SDS011;34086;51.076;13.722;2023-03-01T03:17:14;81.93;;;40.45;;
48263;SDS011;34086;51.076;13.722;2023-03-01T03:18:16;73.10;;;36.80;;
48263;SDS011;34086;51.076;13.722;2023-03-01T03:19:18;76.72;;;38.15;;
48263;SDS011;34086;51.076;13.722;2023-03-01T03:20:20;73.15;;;36.35;;
48263;SDS011;34086;51.076;13.722;2023-03-01T03:21:23;69.90;;;36.42;;
48263;SDS011;34086;51.076;13.722;2023-03-01T03:22:23;68.88;;;36.13;;
48263;SDS011;34086;51.076;13.722;2023-03-01T03:23:24;69.47;;;35.47;;
48263;SDS011;34086;51.076;13.722;2023-03-01T03:24:24;64.45;;;34.28;;
48263;SDS011;34086;51.076;13.722;2023-03-01T03:25:25;65.85;;;35.95;;
48263;SDS011;34086;51.076;13.722;2023-03-01T03:26:27;67.50;;;36.10;;
48263;SDS011;34086;51.076;13.722;2023-03-01T03:27:28;68.55;;;36.88;;
48263;SDS011;34086;51.076;13.722;2023-03-01T03:28:28;76.13;;;38.65;;
48263;SDS011;34086;51.076;13.722;2023-03-01T03:29:30;76.82;;;38.88;;
48263;SDS011;34086;51.076;13.722;2023-03-01T03:30:31;77.35;;;39.28;;
48263;SDS011;34086;51.076;13.722;2023-03-01T03:31:31;77.55;;;39.95;;
48263;SDS011;34086;51.076;13.722;2023-03-01T03:32:32;78.25;;;39.92;;
48263;SDS011;34086;51.076;13.722;2023-03-01T03:33:33;70.70;;;36.92;;
48263;SDS011;34086;51.076;13.722;2023-03-01T03:34:33;74.57;;;38.08;;
48263;SDS011;34086;51.076;13.722;2023-03-01T03:35:38;70.80;;;36.97;;
48263;SDS011;34086;51.076;13.722;2023-03-01T03:36:40;69.57;;;36.70;;
48263;SDS011;34086;51.076;13.722;2023-03-01T03:37:41;74.95;;;39.22;;
48263;SDS011;34086;51.076;13.722;2023-03-01T03:39:00;76.97;;;38.15;;
48263;SDS011;34086;51.076;13.722;2023-03-01T03:40:01;75.18;;;38.75;;
48263;SDS011;34086;51.076;13.722;2023-03-01T03:41:06;72.47;;;37.50;;
48263;SDS011;34086;51.076;13.722;2023-03-01T03:42:08;71.63;;;37.08;;
48263;SDS011;34086;51.076;13.722;2023-03-01T03:43:11;75.05;;;37.25;;
48263;SDS011;34086;51.076;13.722;2023-03-01T03:44:13;72.82;;;37.95;;
48263;SDS011;34086;51.076;13.722;2023-03-01T03:45:15;74.63;;;38.60;;
48263;SDS011;34086;51.076;13.722;2023-03-01T03:46:16;70.82;;;36.83;;
48263;SDS011;34086;51.076;13.722;2023-03-01T03:47:17;70.90;;;36.35;;
48263;SDS011;34086;51.076;13.722;2023-03-01T03:48:18;69.35;;;36.13;;
48263;SDS011;34086;51.076;13.722;2023-03-01T03:49:18;74.70;;;38.05;;
48263;SDS011;34086;51.076;13.722;2023-03-01T03:50:19;75.15;;;39.03;;
48263;SDS011;34086;51.076;13.722;2023-03-01T03:51:19;72.50;;;39.08;;
48263;SDS011;34086;51.076;13.722;2023-03-01T03:52:22;70.88;;;37.00;;
48263;SDS011;34086;51.076;13.722;2023-03-01T03:53:24;65.95;;;35.70;;
48263;SDS011;34086;51.076;13.722;2023-03-01T03:54:26;62.67;;;34.83;;
48263;SDS011;34086;51.076;13.722;2023-03-01T03:55:26;66.18;;;34.28;;
48263;SDS011;34086;51.076;13.722;2023-03-01T03:56:30;66.25;;;34.65;;
48263;SDS011;34086;51.076;13.722;2023-03-01T03:57:30;67.32;;;35.35;;
48263;SDS011;34086;51.076;13.722;2023-03-01T03:58:31;66.68;;;35.58;;
48263;SDS011;34086;51.076;13.722;2023-03-01T03:59:32;61.67;;;34.10;;
48263;SDS011;34086;51.076;13.722;2023-03-01T04:00:33;64.38;;;35.08;;
48263;SDS011;34086;51.076;13.722;2023-03-01T04:01:35;71.25;;;36.47;;
48263;SDS011;34086;51.076;13.722;2023-03-01T04:02:35;66.22;;;35.75;;
48263;SDS011;34086;51.076;13.722;2023-03-01T04:03:36;66.13;;;35.22;;
48263;SDS011;34086;51.076;13.722;2023-03-01T04:04:36;66.30;;;34.58;;
48263;SDS011;34086;51.076;13.722;2023-03-01T04:05:38;67.72;;;35.58;;
48263;SDS011;34086;51.076;13.722;2023-03-01T04:06:39;64.75;;;35.45;;
48263;SDS011;34086;51.076;13.722;2023-03-01T04:07:40;67.75;;;36.15;;
48263;SDS011;34086;51.076;13.722;2023-03-01T04:08:41;72.57;;;37.88;;
48263;SDS011;34086;51.076;13.722;2023-03-01T04:09:42;76.55;;;38.42;;
48263;SDS011;34086;51.076;13.722;2023-03-01T04:10:44;73.50;;;38.13;;
48263;SDS011;34086;51.076;13.722;2023-03-01T04:11:45;74.75;;;38.63;;
48263;SDS011;34086;51.076;13.722;2023-03-01T04:12:46;74.38;;;37.63;;
48263;SDS011;34086;51.076;13.722;2023-03-01T04:13:47;70.40;;;36.50;;
48263;SDS011;34086;51.076;13.722;2023-03-01T04:14:47;65.18;;;35.38;;
48263;SDS011;34086;51.076;13.722;2023-03-01T04:15:49;68.35;;;37.00;;
48263;SDS011;34086;51.076;13.722;2023-03-01T04:16:50;65.72;;;34.55;;
48263;SDS011;34086;51.076;13.722;2023-03-01T04:17:51;66.47;;;35.55;;
48263;SDS011;34086;51.076;13.722;2023-03-01T04:18:52;65.82;;;35.10;;
48263;SDS011;34086;51.076;13.722;2023-03-01T04:19:53;67.20;;;35.25;;
48263;SDS011;34086;51.076;13.722;2023-03-01T04:20:54;63.65;;;35.08;;
48263;SDS011;34086;51.076;13.722;2023-03-01T04:21:55;62.45;;;33.72;;
48263;SDS011;34086;51.076;13.722;2023-03-01T04:22:59;64.20;;;33.70;;
48263;SDS011;34086;51.076;13.722;2023-03-01T04:24:10;64.32;;;34.00;;
48263;SDS011;34086;51.076;13.722;2023-03-01T04:25:11;61.72;;;33.03;;
48263;SDS011;34086;51.076;13.722;2023-03-01T04:26:13;59.72;;;32.72;;
48263;SDS011;34086;51.076;13.722;2023-03-01T04:27:14;62.65;;;33.85;;
48263;SDS011;34086;51.076;13.722;2023-03-01T04:28:15;59.10;;;33.30;;
48263;SDS011;34086;51.076;13.722;2023-03-01T04:29:16;60.78;;;33.50;;
48263;SDS011;34086;51.076;13.722;2023-03-01T04:30:16;62.95;;;34.22;;
48263;SDS011;34086;51.076;13.722;2023-03-01T04:31:18;64.78;;;34.63;;
48263;SDS011;34086;51.076;13.722;2023-03-01T04:32:21;66.22;;;35.10;;
48263;SDS011;34086;51.076;13.722;2023-03-01T04:33:21;63.50;;;34.38;;
48263;SDS011;34086;51.076;13.722;2023-03-01T04:34:23;65.72;;;35.17;;
48263;SDS011;34086;51.076;13.722;2023-03-01T04:35:24;66.07;;;34.63;;
48263;SDS011;34086;51.076;13.722;2023-03-01T04:36:25;62.15;;;34.38;;
48263;SDS011;34086;51.076;13.722;2023-03-01T04:37:27;62.97;;;34.47;;
48263;SDS011;34086;51.076;13.722;2023-03-01T04:38:29;61.40;;;33.97;;
48263;SDS011;34086;51.076;13.722;2023-03-01T04:39:30;64.43;;;34.88;;
48263;SDS011;34086;51.076;13.722;2023-03-01T04:40:30;63.42;;;34.33;;
48263;SDS011;34086;51.076;13.722;2023-03-01T04:41:31;63.45;;;34.15;;
48263;SDS011;34086;51.076;13.722;2023-03-01T04:42:32;62.55;;;34.80;;
48263;SDS011;34086;51.076;13.722;2023-03-01T04:43:32;65.53;;;34.35;;
48263;SDS011;34086;51.076;13.722;2023-03-01T04:44:34;62.88;;;34.47;;
48263;SDS011;34086;51.076;13.722;2023-03-01T04:45:34;66.40;;;34.83;;
48263;SDS011;34086;51.076;13.722;2023-03-01T04:46:35;63.95;;;34.60;;
48263;SDS011;34086;51.076;13.722;2023-03-01T04:47:36;64.72;;;34.47;;
48263;SDS011;34086;51.076;13.722;2023-03-01T04:48:38;64.88;;;34.80;;
48263;SDS011;34086;51.076;13.722;2023-03-01T04:49:39;62.03;;;34.10;;
48263;SDS011;34086;51.076;13.722;2023-03-01T04:50:40;62.67;;;34.28;;
48263;SDS011;34086;51.076;13.722;2023-03-01T04:51:40;67.22;;;35.10;;
48263;SDS011;34086;51.076;13.722;2023-03-01T04:52:41;69.13;;;35.28;;
48263;SDS011;34086;51.076;13.722;2023-03-01T04:53:43;63.60;;;33.67;;
48263;SDS011;34086;51.076;13.722;2023-03-01T04:54:44;64.93;;;34.92;;
48263;SDS011;34086;51.076;13.722;2023-03-01T04:55:44;66.93;;;35.72;;
48263;SDS011;34086;51.076;13.722;2023-03-01T04:56:45;66.82;;;35.38;;
48263;SDS011;34086;51.076;13.722;2023-03-01T04:57:45;64.47;;;34.38;;
48263;SDS011;34086;51.076;13.722;2023-03-01T04:58:46;67.35;;;36.45;;
48263;SDS011;34086;51.076;13.722;2023-03-01T04:59:46;62.40;;;34.80;;
48263;SDS011;34086;51.076;13.722;2023-03-01T05:00:47;66.88;;;36.10;;
48263;SDS011;34086;51.076;13.722;2023-03-01T05:01:54;67.45;;;34.90;;
48263;SDS011;34086;51.076;13.722;2023-03-01T05:02:56;63.35;;;34.28;;
48263;SDS011;34086;51.076;13.722;2023-03-01T05:04:00;65.78;;;35.72;;
48263;SDS011;34086;51.076;13.722;2023-03-01T05:05:02;67.88;;;36.33;;
48263;SDS011;34086;51.076;13.722;2023-03-01T05:06:03;62.10;;;34.00;;
48263;SDS011;34086;51.076;13.722;2023-03-01T05:07:04;64.50;;;34.85;;
48263;SDS011;34086;51.076;13.722;2023-03-01T05:08:06;66.13;;;36.08;;
48263;SDS011;34086;51.076;13.722;2023-03-01T05:09:07;67.22;;;35.50;;
48263;SDS011;34086;51.076;13.722;2023-03-01T05:10:08;71.28;;;37.15;;
48263;SDS011;34086;51.076;13.722;2023-03-01T05:11:10;67.88;;;35.70;;
48263;SDS011;34086;51.076;13.722;2023-03-01T05:12:11;65.82;;;35.80;;
48263;SDS011;34086;51.076;13.722;2023-03-01T05:13:12;68.90;;;36.35;;
48263;SDS011;34086;51.076;13.722;2023-03-01T05:14:15;66.55;;;35.70;;
48263;SDS011;34086;51.076;13.722;2023-03-01T05:15:15;69.35;;;36.28;;
48263;SDS011;34086;51.076;13.722;2023-03-01T05:16:16;67.32;;;36.05;;
48263;SDS011;34086;51.076;13.722;2023-03-01T05:17:16;68.60;;;35.85;;
48263;SDS011;34086;51.076;13.722;2023-03-01T05:18:17;69.35;;;36.30;;
48263;SDS011;34086;51.076;13.722;2023-03-01T05:19:17;68.53;;;35.75;;
48263;SDS011;34086;51.076;13.722;2023-03-01T05:20:22;65.45;;;34.70;;
48263;SDS011;34086;51.076;13.722;2023-03-01T05:21:23;66.22;;;34.60;;
48263;SDS011;34086;51.076;13.722;2023-03-01T05:22:23;63.08;;;35.05;;
48263;SDS011;34086;51.076;13.722;2023-03-01T05:23:24;65.03;;;35.67;;
48263;SDS011;34086;51.076;13.722;2023-03-01T05:24:25;66.97;;;34.45;;
48263;SDS011;34086;51.076;13.722;2023-03-01T05:25:26;67.80;;;35.13;;
48263;SDS011;34086;51.076;13.722;2023-03-01T05:26:27;65.97;;;34.95;;
48263;SDS011;34086;51.076;13.722;2023-03-01T05:27:28;62.20;;;35.10;;
48263;SDS011;34086;51.076;13.722;2023-03-01T05:28:30;64.95;;;35.38;;
48263;SDS011;34086;51.076;13.722;2023-03-01T05:29:31;68.70;;;37.08;;
48263;SDS011;34086;51.076;13.722;2023-03-01T05:30:34;66.05;;;35.17;;
48263;SDS011;34086;51.076;13.722;2023-03-01T05:31:35;67.45;;;35.42;;
48263;SDS011;34086;51.076;13.722;2023-03-01T05:32:38;69.13;;;36.22;;
48263;SDS011;34086;51.076;13.722;2023-03-01T05:33:40;62.92;;;34.33;;
48263;SDS011;34086;51.076;13.722;2023-03-01T05:34:41;69.28;;;37.08;;
48263;SDS011;34086;51.076;13.722;2023-03-01T05:35:42;70.82;;;36.35;;
48263;SDS011;34086;51.076;13.722;2023-03-01T05:36:43;71.28;;;37.10;;
48263;SDS011;34086;51.076;13.722;2023-03-01T05:37:45;70.97;;;36.95;;
48263;SDS011;34086;51.076;13.722;2023-03-01T05:38:47;68.13;;;36.42;;
48263;SDS011;34086;51.076;13.722;2023-03-01T05:39:47;79.43;;;40.28;;
48263;SDS011;34086;51.076;13.722;2023-03-01T05:40:50;77.03;;;39.67;;
48263;SDS011;34086;51.076;13.722;2023-03-01T05:41:54;73.68;;;38.03;;
48263;SDS011;34086;51.076;13.722;2023-03-01T05:42:57;72.90;;;37.47;;
48263;SDS011;34086;51.076;13.722;2023-03-01T05:43:57;69.57;;;36.47;;
48263;SDS011;34086;51.076;13.722;2023-03-01T05:44:58;67.65;;;35.63;;
48263;SDS011;34086;51.076;13.722;2023-03-01T05:45:58;65.78;;;36.08;;
48263;SDS011;34086;51.076;13.722;2023-03-01T05:46:59;65.20;;;35.15;;
48263;SDS011;34086;51.076;13.722;2023-03-01T05:48:00;71.35;;;36.40;;
48263;SDS011;34086;51.076;13.722;2023-03-01T05:49:00;64.43;;;35.35;;
48263;SDS011;34086;51.076;13.722;2023-03-01T05:50:02;66.13;;;36.42;;
48263;SDS011;34086;51.076;13.722;2023-03-01T05:51:03;64.65;;;35.47;;
48263;SDS011;34086;51.076;13.722;2023-03-01T05:52:03;66.72;;;35.78;;
48263;SDS011;34086;51.076;13.722;2023-03-01T05:53:05;69.78;;;35.75;;
48263;SDS011;34086;51.076;13.722;2023-03-01T05:54:08;67.30;;;35.95;;
48263;SDS011;34086;51.076;13.722;2023-03-01T05:55:09;70.45;;;36.60;;
48263;SDS011;34086;51.076;13.722;2023-03-01T05:56:09;66.00;;;35.40;;
48263;SDS011;34086;51.076;13.722;2023-03-01T05:57:10;67.43;;;35.67;;
48263;SDS011;34086;51.076;13.722;2023-03-01T05:58:12;65.85;;;34.40;;
48263;SDS011;34086;51.076;13.722;2023-03-01T05:59:17;68.88;;;35.20;;
48263;SDS011;34086;51.076;13.722;2023-03-01T06:00:18;74.05;;;37.22;;
48263;SDS011;34086;51.076;13.722;2023-03-01T06:01:22;71.93;;;35.83;;
48263;SDS011;34086;51.076;13.722;2023-03-01T06:02:23;68.38;;;36.22;;
48263;SDS011;34086;51.076;13.722;2023-03-01T06:03:23;74.03;;;37.67;;
48263;SDS011;34086;51.076;13.722;2023-03-01T06:04:24;68.15;;;36.80;;
48263;SDS011;34086;51.076;13.722;2023-03-01T06:05:24;69.88;;;36.70;;
48263;SDS011;34086;51.076;13.722;2023-03-01T06:06:25;69.03;;;35.60;;
48263;SDS011;34086;51.076;13.722;2023-03-01T06:07:26;74.05;;;37.28;;